Fortunia — V2OG3 — position and weather

sailwx.info

Track history (hours):
 
Tides and Currents Weather Stations Pressure Air Temp Water Temp Dewpoint Dewpoint Depression Visibility Wind Speed Wind Dir Waves Ship Positions

Fortunia

Last reported at 2014-Nov-01 01:09 UTC. Time now 2014-Nov-01 09:47 UTC.
Position N 37°32' W 000°57'.

Length 121 m; draft 5.7 m.

Type: Ship. MMSI: 304010638.

Date/timePositionNaut miles runAvg speedWind from/ knotsBaromVisibWave heightAir tempDewpointWater temp
2014-Nov-01 01:09N 37°32' W 000°57'610.7
2014-Nov-01 00:33N 37°30' W 000°49'1511.3
2014-Oct-31 23:15N 37°27' W 000°31'1111.5
2014-Oct-31 22:15N 37°25' W 000°17'  
2014-Oct-28 11:32N 38°29' E 002°33'1410.8
2014-Oct-28 10:14N 38°42' E 002°28'911.0
2014-Oct-28 09:26N 38°51' E 002°25'1011.1
2014-Oct-28 08:33N 38°60' E 002°21'1111.3
2014-Oct-28 07:33N 39°11' E 002°18'1110.8
2014-Oct-28 06:33N 39°21' E 002°14'1110.7
2014-Oct-28 05:33N 39°32' E 002°10'1010.4
2014-Oct-28 04:34N 39°42' E 002°10'1110.7
2014-Oct-28 03:34N 39°53' E 002°10'1110.7
2014-Oct-28 02:34N 40°03' E 002°10'1110.7
2014-Oct-28 01:33N 40°14' E 002°10'1111.0
2014-Oct-28 00:33N 40°25' E 002°11'1110.9
2014-Oct-27 23:34N 40°36' E 002°11'1110.8
2014-Oct-27 22:33N 40°47' E 002°11'1110.7
2014-Oct-27 21:34N 40°57' E 002°10'1110.8
2014-Oct-27 20:32N 41°09' E 002°11'13 0.8
2014-Oct-27 04:18N 41°21' E 002°10'3 3.7
2014-Oct-27 03:31N 41°18' E 002°12'0 0.0
2014-Oct-27 00:03N 41°19' E 002°12'0 0.0
2014-Oct-26 16:18N 41°19' E 002°12'0 0.0
2014-Oct-26 09:09N 41°19' E 002°12'0 0.0
2014-Oct-26 08:14N 41°19' E 002°12'0 0.0
2014-Oct-26 06:20N 41°19' E 002°12'0 0.0
2014-Oct-26 05:31N 41°19' E 002°12'0 0.0
2014-Oct-26 03:30N 41°19' E 002°12'0 0.0
2014-Oct-26 02:30N 41°19' E 002°12'0 0.0
2014-Oct-25 23:04N 41°19' E 002°12'0 0.0
2014-Oct-25 21:28N 41°19' E 002°12'0 0.0
2014-Oct-25 20:33N 41°19' E 002°12'0 0.0
2014-Oct-25 18:32N 41°19' E 002°12'9 8.8
2014-Oct-25 17:33N 41°11' E 002°07'1210.6
2014-Oct-25 16:25N 41°00' E 001°60'1111.0
2014-Oct-25 15:26N 40°50' E 001°53'1111.5
2014-Oct-25 14:31N 40°41' E 001°46'2110.5
2014-Oct-25 12:29N 40°22' E 001°34'1310.8
2014-Oct-25 11:19N 40°11' E 001°27'810.6
2014-Oct-25 10:33N 40°03' E 001°22'5310.6
2014-Oct-25 05:32N 39°16' E 000°51'1110.9
2014-Oct-25 04:32N 39°07' E 000°44'1110.9
2014-Oct-25 03:33N 38°57' E 000°38'1410.5
2014-Oct-25 02:14N 38°45' E 000°30'710.1
2014-Oct-25 01:33N 38°39' E 000°25'1010.1
2014-Oct-25 00:33N 38°31' E 000°18'1010.3
2014-Oct-24 23:33N 38°22' E 000°10'1010.1
2014-Oct-24 22:33N 38°13' E 000°03'10 9.9
2014-Oct-24 21:33N 38°05' W 000°04'1010.4
2014-Oct-24 20:33N 37°56' W 000°11'1010.2
2014-Oct-24 19:33N 37°48' W 000°18'1110.5
2014-Oct-24 18:33N 37°39' W 000°25'1010.4
2014-Oct-24 17:33N 37°31' W 000°34'1010.0
2014-Oct-24 16:33N 37°31' W 000°46'1010.5
2014-Oct-24 15:33N 37°33' W 000°59'3 0.2
2014-Oct-24 02:24N 37°36' W 000°59'6 7.4
2014-Oct-24 01:33N 37°31' W 000°53'1111.0
2014-Oct-24 00:33N 37°29' W 000°40'1111.1
2014-Oct-23 23:33N 37°26' W 000°26'1110.8
2014-Oct-23 22:33N 37°24' W 000°13'1110.7
2014-Oct-23 21:33N 37°22' E 000°00'1110.7
2014-Oct-23 20:33N 37°20' E 000°13'1110.8
2014-Oct-23 19:33N 37°18' E 000°27'1111.1
2014-Oct-23 18:33N 37°16' E 000°40'1411.0
2014-Oct-23 17:19N 37°13' E 000°57'  
Track history (hours):
 
Tides and Currents Weather Stations Pressure Air Temp Water Temp Dewpoint Dewpoint Depression Visibility Wind Speed Wind Dir Waves Ship Positions

Fortunia

Last reported at 2014-Nov-01 01:09 UTC. Time now 2014-Nov-01 09:47 UTC.
Position N 37°32' W 000°57'.

Length 121 m; draft 5.7 m.

Type: Ship. MMSI: 304010638.

Date/timePositionNaut miles runAvg speedWind from/ knotsBaromVisibWave heightAir tempDewpointWater temp
2014-Nov-01 01:09N 37°32' W 000°57'610.7
2014-Nov-01 00:33N 37°30' W 000°49'1511.3
2014-Oct-31 23:15N 37°27' W 000°31'1111.5
2014-Oct-31 22:15N 37°25' W 000°17'  
2014-Oct-28 11:32N 38°29' E 002°33'1410.8
2014-Oct-28 10:14N 38°42' E 002°28'911.0
2014-Oct-28 09:26N 38°51' E 002°25'1011.1
2014-Oct-28 08:33N 38°60' E 002°21'1111.3
2014-Oct-28 07:33N 39°11' E 002°18'1110.8
2014-Oct-28 06:33N 39°21' E 002°14'1110.7
2014-Oct-28 05:33N 39°32' E 002°10'1010.4
2014-Oct-28 04:34N 39°42' E 002°10'1110.7
2014-Oct-28 03:34N 39°53' E 002°10'1110.7
2014-Oct-28 02:34N 40°03' E 002°10'1110.7
2014-Oct-28 01:33N 40°14' E 002°10'1111.0
2014-Oct-28 00:33N 40°25' E 002°11'1110.9
2014-Oct-27 23:34N 40°36' E 002°11'1110.8
2014-Oct-27 22:33N 40°47' E 002°11'1110.7
2014-Oct-27 21:34N 40°57' E 002°10'1110.8
2014-Oct-27 20:32N 41°09' E 002°11'13 0.8
2014-Oct-27 04:18N 41°21' E 002°10'3 3.7
2014-Oct-27 03:31N 41°18' E 002°12'0 0.0
2014-Oct-27 00:03N 41°19' E 002°12'0 0.0
2014-Oct-26 16:18N 41°19' E 002°12'0 0.0
2014-Oct-26 09:09N 41°19' E 002°12'0 0.0
2014-Oct-26 08:14N 41°19' E 002°12'0 0.0
2014-Oct-26 06:20N 41°19' E 002°12'0 0.0
2014-Oct-26 05:31N 41°19' E 002°12'0 0.0
2014-Oct-26 03:30N 41°19' E 002°12'0 0.0
2014-Oct-26 02:30N 41°19' E 002°12'0 0.0
2014-Oct-25 23:04N 41°19' E 002°12'0 0.0
2014-Oct-25 21:28N 41°19' E 002°12'0 0.0
2014-Oct-25 20:33N 41°19' E 002°12'0 0.0
2014-Oct-25 18:32N 41°19' E 002°12'9 8.8
2014-Oct-25 17:33N 41°11' E 002°07'1210.6
2014-Oct-25 16:25N 41°00' E 001°60'1111.0
2014-Oct-25 15:26N 40°50' E 001°53'1111.5
2014-Oct-25 14:31N 40°41' E 001°46'2110.5
2014-Oct-25 12:29N 40°22' E 001°34'1310.8
2014-Oct-25 11:19N 40°11' E 001°27'810.6
2014-Oct-25 10:33N 40°03' E 001°22'5310.6
2014-Oct-25 05:32N 39°16' E 000°51'1110.9
2014-Oct-25 04:32N 39°07' E 000°44'1110.9
2014-Oct-25 03:33N 38°57' E 000°38'1410.5
2014-Oct-25 02:14N 38°45' E 000°30'710.1
2014-Oct-25 01:33N 38°39' E 000°25'1010.1
2014-Oct-25 00:33N 38°31' E 000°18'1010.3
2014-Oct-24 23:33N 38°22' E 000°10'1010.1
2014-Oct-24 22:33N 38°13' E 000°03'10 9.9
2014-Oct-24 21:33N 38°05' W 000°04'1010.4
2014-Oct-24 20:33N 37°56' W 000°11'1010.2
2014-Oct-24 19:33N 37°48' W 000°18'1110.5
2014-Oct-24 18:33N 37°39' W 000°25'1010.4
2014-Oct-24 17:33N 37°31' W 000°34'1010.0
2014-Oct-24 16:33N 37°31' W 000°46'1010.5
2014-Oct-24 15:33N 37°33' W 000°59'3 0.2
2014-Oct-24 02:24N 37°36' W 000°59'6 7.4
2014-Oct-24 01:33N 37°31' W 000°53'1111.0
2014-Oct-24 00:33N 37°29' W 000°40'1111.1
2014-Oct-23 23:33N 37°26' W 000°26'1110.8
2014-Oct-23 22:33N 37°24' W 000°13'1110.7
2014-Oct-23 21:33N 37°22' E 000°00'1110.7
2014-Oct-23 20:33N 37°20' E 000°13'1110.8
2014-Oct-23 19:33N 37°18' E 000°27'1111.1
2014-Oct-23 18:33N 37°16' E 000°40'1411.0
2014-Oct-23 17:19N 37°13' E 000°57'  

Dump ship's entire track history